Ercan, Cyprus

1:22 PM EEST on September 19, 2014 (GMT +0300)
Ercan | Change Station
CLOSE
Current Station
Airport
Location: Ercan,
Elevation: 299 ft
Nearby Weather Stations

Elev 299 ft 35.15 °N, 33.50 °E | Updated 32 minutes ago

Scattered Clouds
Scattered Clouds
84 °F
Feels Like 84 °F
N
8
Wind Variable Wind from North

Today
High -- | Low -- °F
--% Chance of Precip.
Yesterday
High -- | Low -- °F
Precip. -- in
6:31 AM 6:47 PM
Waning Crescent, 20% visible
Pressure 29.92 in
Visibility 6.2 miles
Clouds Few 2500 ft
Scattered Clouds 3000 ft
Heat Index 84 °F
Dew Point 59 °F
Humidity 42%
Rainfall 0.00 in
Snow Depth Not available.
UV 8 out of 12
Pollen Not available.
Air Quality Not available.
Flu Activity Not available.
METAR LCEN 190950Z 36007KT 320V040 9999 FEW025 SCT030TCU 29/15 Q1013 NOSIG RMK RWY11 05008KT

More Conditions Fewer Conditions

Pressure 29.92 in
Visibility 6.2 miles
Clouds Few 2500 ft
Scattered Clouds 3000 ft
Heat Index 84 °F
Dew Point 59 °F
Humidity 42%
Rainfall 0.00 in
Snow Depth Not available.
UV 8 out of 12
Pollen Not available.
Air Quality Not available.
Flu Activity Not available.
METAR LCEN 190950Z 36007KT 320V040 9999 FEW025 SCT030TCU 29/15 Q1013 NOSIG RMK RWY11 05008KT

More Conditions Fewer Conditions

10-Day Weather Forecast

Almanac

Astronomy

Sep. 19, 2014 Rise Set
Actual Time 6:31 AM EEST 6:47 PM EEST
Civil Twilight 6:06 AM EEST 7:12 PM EEST
Nautical Twilight 5:36 AM EEST 7:42 PM EEST
Astronomical Twilight 5:06 AM EEST 8:12 PM EEST
Moon 2:06 AM EEST 3:56 PM EEST
Length of Visible Light 13h 06m
Length of Day
12h 16m
Tomorrow will be 2m 11s shorter.
Waning Crescent, 20% of the Moon is Illuminated
Today
Waning Crescent
Sep 24
New
Oct 1
First Quarter
Oct 8
Full
Oct 15
Last Quarter

Yesterday's Extremes

Country Highs Country Lows

Community

WunderPhotos

Upload Photos

1,754,583 photos uploaded!

Nearby

Snow Depth

Not available.

Earthquake Activity

City Distance Mag. Time & Date
No recent earthquake activity has been reported nearby.
Minimum magnitude displayed is 2.5.

Coastal Water Temperatures

Place Temperature
No Stations Reporting

Nearby Weather Stations